Sen. John J. Marchi — WDB8296 — position and weather

sailwx.info

Track history (hours):
 
Tides and Currents Weather Stations Pressure Air Temp Water Temp Dewpoint Dewpoint Depression Visibility Wind Speed Wind Dir Waves Ship Positions

Sen. John J. Marchi

Owner: CITY OF NEW YORK, Brooklyn, NY. More information available from US FCC via Universal Licensing System and Coast Guard Vessel Documentation Center.

Last reported at 2017-Oct-17 15:01 UTC. Time now 2017-Oct-17 15:13 UTC.
Position N 40°39' W 074°04'.

Length 95 m; draft 4 m.

Type: Passenger vessel. MMSI: 366952870.

Date/timePositionNaut miles runAvg speedWind from/ knotsBaromVisibWave heightAir tempDewpointWater temp
2017-Oct-17 15:01N 40°39' W 074°04'0 0.0
2017-Oct-17 14:31N 40°39' W 074°04'0 0.0
2017-Oct-17 14:01N 40°39' W 074°04'0 0.0
2017-Oct-17 13:31N 40°39' W 074°04'4 8.6
2017-Oct-17 13:00N 40°42' W 074°01'4 8.6
2017-Oct-17 12:31N 40°39' W 074°04'4 8.6
2017-Oct-17 12:01N 40°42' W 074°01'4 8.6
2017-Oct-17 11:30N 40°39' W 074°04'0 0.0
2017-Oct-17 11:00N 40°39' W 074°04'0 0.0
2017-Oct-17 10:30N 40°39' W 074°04'4 8.6
2017-Oct-17 10:00N 40°42' W 074°01'4 8.5
2017-Oct-17 09:30N 40°39' W 074°04'4 8.6
2017-Oct-17 09:00N 40°42' W 074°01'4 8.6
2017-Oct-17 08:30N 40°39' W 074°04'4 8.6
2017-Oct-17 08:00N 40°42' W 074°01'4 8.6
2017-Oct-17 07:31N 40°39' W 074°04'4 7.1
2017-Oct-17 06:54N 40°42' W 074°01'410.6
2017-Oct-17 06:30N 40°39' W 074°04'4 8.5
2017-Oct-17 06:01N 40°42' W 074°01'4 8.6
2017-Oct-17 05:31N 40°39' W 074°04'4 8.6
2017-Oct-17 05:00N 40°42' W 074°01'4 7.1
2017-Oct-17 04:25N 40°39' W 074°04'4 8.4
2017-Oct-17 03:55N 40°42' W 074°01'410.6
2017-Oct-17 03:30N 40°39' W 074°04'0 0.0
2017-Oct-17 03:00N 40°39' W 074°04'4 8.6
2017-Oct-17 02:30N 40°42' W 074°01'4 8.5
2017-Oct-17 02:00N 40°39' W 074°04'0 0.1
2017-Oct-17 01:30N 40°39' W 074°04'4 8.6
2017-Oct-17 01:01N 40°42' W 074°01'4 8.6
2017-Oct-17 00:30N 40°39' W 074°04'1 1.4
2017-Oct-17 00:01N 40°39' W 074°04'4 7.3
2017-Oct-16 23:30N 40°42' W 074°01'4 8.7
2017-Oct-16 23:01N 40°39' W 074°04'4 8.6
2017-Oct-16 22:30N 40°42' W 074°01'4 8.6
2017-Oct-16 22:00N 40°39' W 074°04'4 8.6
2017-Oct-16 21:30N 40°42' W 074°01'3 6.3
2017-Oct-16 21:00N 40°39' W 074°03'2 3.9
2017-Oct-16 20:30N 40°41' W 074°02'2 3.5
2017-Oct-16 20:00N 40°40' W 074°03'1 2.8
2017-Oct-16 19:30N 40°39' W 074°04'4 8.7
2017-Oct-16 19:01N 40°42' W 074°01'4 8.6
2017-Oct-16 18:30N 40°39' W 074°04'0 0.0
2017-Oct-16 18:00N 40°39' W 074°04'4 8.7
2017-Oct-16 17:31N 40°42' W 074°01'4 8.6
2017-Oct-16 17:01N 40°39' W 074°04'0 0.0
2017-Oct-16 16:30N 40°39' W 074°04'0 0.0
2017-Oct-16 16:00N 40°39' W 074°04'0 0.0
2017-Oct-16 15:30N 40°39' W 074°04'0 0.0
2017-Oct-16 15:00N 40°39' W 074°04'0 0.0
2017-Oct-16 14:30N 40°39' W 074°04'0 0.0
2017-Oct-16 13:30N 40°39' W 074°04'4 8.7
2017-Oct-16 13:01N 40°42' W 074°01'4 8.6
2017-Oct-16 12:30N 40°39' W 074°04'4 8.6
2017-Oct-16 12:00N 40°42' W 074°01'4 8.6
2017-Oct-16 11:30N 40°39' W 074°04'3 6.0
2017-Oct-16 11:01N 40°41' W 074°02'2 3.1
2017-Oct-16 10:31N 40°40' W 074°03'2 3.0
2017-Oct-16 10:00N 40°39' W 074°04'4 8.6
2017-Oct-16 09:30N 40°42' W 074°01'4 8.6
2017-Oct-16 09:00N 40°39' W 074°04'4 8.6
2017-Oct-16 08:30N 40°42' W 074°01'4 8.6
2017-Oct-16 08:01N 40°39' W 074°04'4 8.5
2017-Oct-16 07:31N 40°42' W 074°01'4 8.5
2017-Oct-16 07:00N 40°39' W 074°04'4 8.6
2017-Oct-16 06:31N 40°42' W 074°01'4 8.6
2017-Oct-16 06:01N 40°39' W 074°04'4 8.6
2017-Oct-16 05:30N 40°42' W 074°01'4 8.6
2017-Oct-16 05:01N 40°39' W 074°04'0 0.0
2017-Oct-16 04:31N 40°39' W 074°04'0 0.0
2017-Oct-16 04:01N 40°39' W 074°04'4 8.5
2017-Oct-16 03:30N 40°42' W 074°01'4 8.5
2017-Oct-16 03:00N 40°39' W 074°04'4 8.5
2017-Oct-16 02:30N 40°42' W 074°01'4 8.5
2017-Oct-16 02:00N 40°39' W 074°04'4 8.6
2017-Oct-16 01:30N 40°42' W 074°01'4 8.5
2017-Oct-16 01:00N 40°39' W 074°04'4 8.5
2017-Oct-16 00:30N 40°42' W 074°01'4 8.5
2017-Oct-16 00:00N 40°39' W 074°04'0 0.0
2017-Oct-15 23:25N 40°39' W 074°04'410.6
2017-Oct-15 23:00N 40°42' W 074°01'4 8.5
2017-Oct-15 22:31N 40°39' W 074°04'0 0.1
2017-Oct-15 22:00N 40°39' W 074°04'4 8.6
2017-Oct-15 21:30N 40°42' W 074°01'4 8.7
2017-Oct-15 21:00N 40°39' W 074°04'0 0.3
2017-Oct-15 20:31N 40°39' W 074°04'4 8.3
2017-Oct-15 20:00N 40°42' W 074°01'4 8.5
2017-Oct-15 19:30N 40°39' W 074°04'0 0.0
2017-Oct-15 19:00N 40°39' W 074°04'4 8.6
2017-Oct-15 18:30N 40°42' W 074°01'4 8.6
2017-Oct-15 18:00N 40°39' W 074°04'0 0.0
2017-Oct-15 17:30N 40°39' W 074°04'4 8.6
2017-Oct-15 17:00N 40°42' W 074°01'4 8.7
2017-Oct-15 16:30N 40°39' W 074°04'0 0.0
2017-Oct-15 16:00N 40°39' W 074°04'4 8.6
2017-Oct-15 15:30N 40°42' W 074°01'4 8.6
2017-Oct-15 15:00N 40°39' W 074°04'0 0.0
2017-Oct-15 14:01N 40°39' W 074°04'4 8.6
2017-Oct-15 13:31N 40°42' W 074°01'4 8.6
2017-Oct-15 13:00N 40°39' W 074°04'4 8.6
2017-Oct-15 12:31N 40°42' W 074°01'4 8.6
2017-Oct-15 12:01N 40°39' W 074°04'0 0.0
2017-Oct-15 11:30N 40°39' W 074°04'0 0.0
2017-Oct-15 11:00N 40°39' W 074°04'0 0.0
2017-Oct-15 10:30N 40°39' W 074°04'0 0.0
2017-Oct-15 10:01N 40°39' W 074°04'0 0.0
2017-Oct-15 05:13N 40°39' W 074°04'0 0.0
2017-Oct-15 05:00N 40°39' W 074°04'0 0.0
2017-Oct-15 04:30N 40°39' W 074°04'0 0.3
2017-Oct-15 04:01N 40°39' W 074°04'4 7.6
2017-Oct-15 03:30N 40°42' W 074°01'4 7.6
2017-Oct-15 03:00N 40°39' W 074°04'4 8.2
2017-Oct-15 02:31N 40°42' W 074°01'4 8.5
2017-Oct-15 02:00N 40°39' W 074°04'4 8.6
2017-Oct-15 01:30N 40°42' W 074°01'4 8.6
2017-Oct-15 01:01N 40°39' W 074°04'4 8.6
2017-Oct-15 00:30N 40°42' W 074°01'4 8.6
2017-Oct-15 00:01N 40°39' W 074°04'0 0.1
2017-Oct-14 23:31N 40°39' W 074°04'4 8.5
2017-Oct-14 23:00N 40°42' W 074°01'4 8.5
2017-Oct-14 22:31N 40°39' W 074°04'0 0.1
2017-Oct-14 22:00N 40°39' W 074°04'4 8.6
2017-Oct-14 21:30N 40°42' W 074°01'4 8.6
2017-Oct-14 21:01N 40°39' W 074°04'0 0.0
2017-Oct-14 20:30N 40°39' W 074°04'4 8.8
2017-Oct-14 20:00N 40°42' W 074°01'4 8.6
2017-Oct-14 19:31N 40°39' W 074°04'0 0.1
2017-Oct-14 19:00N 40°39' W 074°04'4 8.7
2017-Oct-14 18:30N 40°42' W 074°01'4 8.5
2017-Oct-14 18:00N 40°39' W 074°04'0 0.1
2017-Oct-14 17:30N 40°39' W 074°04'4 8.7
2017-Oct-14 17:00N 40°42' W 074°01'4 8.6
2017-Oct-14 16:30N 40°39' W 074°04'1 2.2
2017-Oct-14 16:00N 40°39' W 074°03'3 5.6
2017-Oct-14 15:30N 40°42' W 074°01'4 7.6
2017-Oct-14 15:00N 40°39' W 074°04'4 8.7
2017-Oct-14 14:30N 40°42' W 074°01'4 8.5
2017-Oct-14 14:00N 40°39' W 074°04'4 8.8
2017-Oct-14 13:30N 40°42' W 074°01'4 8.7
2017-Oct-14 13:00N 40°39' W 074°04'4 8.6
2017-Oct-14 12:30N 40°42' W 074°01'4 8.5
2017-Oct-14 12:00N 40°39' W 074°04'0 0.0
2017-Oct-14 11:30N 40°39' W 074°04'0 0.0
2017-Oct-14 11:00N 40°39' W 074°04'0 0.0
2017-Oct-14 10:30N 40°39' W 074°04'0 0.0
2017-Oct-14 10:00N 40°39' W 074°04'0 0.0
2017-Oct-14 09:30N 40°39' W 074°04'0 0.1
2017-Oct-14 08:58N 40°39' W 074°04'0 0.0
2017-Oct-14 08:28N 40°39' W 074°04'0 0.0
2017-Oct-14 07:58N 40°39' W 074°04'0 0.0
2017-Oct-14 07:28N 40°39' W 074°04'0 0.0
2017-Oct-14 06:58N 40°39' W 074°04'0 0.0
2017-Oct-14 06:28N 40°39' W 074°04'0 0.0
2017-Oct-14 05:58N 40°39' W 074°04'0 0.0
2017-Oct-14 05:28N 40°39' W 074°04'0 0.0
2017-Oct-14 04:58N 40°39' W 074°04'0 0.0
2017-Oct-14 04:28N 40°39' W 074°04'0 0.0
2017-Oct-14 03:58N 40°39' W 074°04'0 0.0
2017-Oct-14 03:30N 40°39' W 074°04'0 0.0
2017-Oct-14 03:00N 40°39' W 074°04'4 8.7
2017-Oct-14 02:30N 40°42' W 074°01'4 8.6
2017-Oct-14 02:00N 40°39' W 074°04'0 0.0
2017-Oct-14 01:23N 40°39' W 074°04'411.1
2017-Oct-14 01:00N 40°42' W 074°01'4 8.6
2017-Oct-14 00:30N 40°39' W 074°04'0 0.6
2017-Oct-14 00:01N 40°39' W 074°04'4 7.8
2017-Oct-13 23:29N 40°42' W 074°01'4 8.7
2017-Oct-13 23:00N 40°39' W 074°04'4 8.5
2017-Oct-13 22:30N 40°42' W 074°01'4 8.6
2017-Oct-13 22:00N 40°39' W 074°04'4 8.4
2017-Oct-13 21:30N 40°42' W 074°01'4 8.4
2017-Oct-13 21:00N 40°39' W 074°04'3 6.9
2017-Oct-13 20:30N 40°42' W 074°02'3 5.2
2017-Oct-13 20:00N 40°39' W 074°03'1 2.1
2017-Oct-13 19:30N 40°39' W 074°04'4 8.7
2017-Oct-13 19:00N 40°42' W 074°01'4 8.4
2017-Oct-13 18:30N 40°39' W 074°04'0 0.1
2017-Oct-13 18:00N 40°39' W 074°04'4 8.6
2017-Oct-13 17:30N 40°42' W 074°01'4 8.6
2017-Oct-13 17:00N 40°39' W 074°04'4 8.7
2017-Oct-13 16:30N 40°42' W 074°01'4 8.8
2017-Oct-13 16:00N 40°39' W 074°04'0 0.0
2017-Oct-13 15:30N 40°39' W 074°04'0 0.0
2017-Oct-13 15:00N 40°39' W 074°04'0 0.0
2017-Oct-13 14:30N 40°39' W 074°04'0 0.0
2017-Oct-13 14:00N 40°39' W 074°04'0 0.0
2017-Oct-13 13:30N 40°39' W 074°04'4 8.7
2017-Oct-13 13:00N 40°42' W 074°01'4 8.7
2017-Oct-13 12:30N 40°39' W 074°04'4 8.7
2017-Oct-13 12:00N 40°42' W 074°01'4 8.5
2017-Oct-13 11:30N 40°39' W 074°04'0 0.2
2017-Oct-13 11:00N 40°39' W 074°04'0 0.0
2017-Oct-13 10:29N 40°39' W 074°04'0 0.0
2017-Oct-13 09:59N 40°39' W 074°04'0 0.0
2017-Oct-13 09:29N 40°39' W 074°04'0 0.0
2017-Oct-13 08:59N 40°39' W 074°04'0 0.0
2017-Oct-13 08:29N 40°39' W 074°04'0 0.0
2017-Oct-13 07:59N 40°39' W 074°04'0 0.0
2017-Oct-13 07:29N 40°39' W 074°04'0 0.0
2017-Oct-13 06:56N 40°39' W 074°04'0 0.0
2017-Oct-13 06:29N 40°39' W 074°04'0 0.0
2017-Oct-13 05:59N 40°39' W 074°04'0 0.0
2017-Oct-13 05:29N 40°39' W 074°04'0 0.0
2017-Oct-13 04:59N 40°39' W 074°04'0 0.0
2017-Oct-13 04:30N 40°39' W 074°04'1 1.4
2017-Oct-13 04:00N 40°38' W 074°04'1 1.5
2017-Oct-13 03:30N 40°39' W 074°04'0 0.0
2017-Oct-13 03:00N 40°39' W 074°04'4 8.8
2017-Oct-13 02:30N 40°42' W 074°01'4 8.4
2017-Oct-13 02:00N 40°39' W 074°04'0 0.0
2017-Oct-13 01:31N 40°39' W 074°04'4 8.5
2017-Oct-13 01:00N 40°42' W 074°01'4 8.6
2017-Oct-13 00:30N 40°39' W 074°04'0 0.2
2017-Oct-13 00:00N 40°39' W 074°04'4 8.1
2017-Oct-12 23:29N 40°42' W 074°01'4 7.4
2017-Oct-12 22:54N 40°39' W 074°04'410.9
2017-Oct-12 22:30N 40°42' W 074°01'4 8.4
2017-Oct-12 22:00N 40°39' W 074°04'4 8.6
2017-Oct-12 21:30N 40°42' W 074°01'4 8.5
2017-Oct-12 21:00N 40°39' W 074°04'3 6.6
2017-Oct-12 20:30N 40°42' W 074°02'2 4.1
2017-Oct-12 20:00N 40°40' W 074°03'1 3.0
2017-Oct-12 19:30N 40°39' W 074°04'4 8.6
2017-Oct-12 19:00N 40°42' W 074°01'4 8.6
2017-Oct-12 18:30N 40°39' W 074°04'0 0.0
2017-Oct-12 17:30N 40°39' W 074°04'4 8.7
2017-Oct-12 17:00N 40°42' W 074°01'4 8.6
2017-Oct-12 16:30N 40°39' W 074°04'0 0.0
2017-Oct-12 15:01N 40°39' W 074°04'0 0.0
2017-Oct-12 15:00N 40°39' W 074°04'0 0.0
2017-Oct-12 14:31N 40°39' W 074°04'4 8.3
2017-Oct-12 13:59N 40°42' W 074°01'4 8.8
2017-Oct-12 13:30N 40°39' W 074°04'0 0.0
2017-Oct-12 12:33N 40°39' W 074°04'0 0.0
2017-Oct-12 12:30N 40°39' W 074°04'4 8.7
2017-Oct-12 12:00N 40°42' W 074°01'4 8.5
2017-Oct-12 11:30N 40°39' W 074°04'0 0.2
2017-Oct-12 11:00N 40°39' W 074°04'0 0.0
2017-Oct-12 10:30N 40°39' W 074°04'0 0.0
2017-Oct-12 10:00N 40°39' W 074°04'0 0.0
2017-Oct-12 09:30N 40°39' W 074°04'0 0.0
2017-Oct-12 09:00N 40°39' W 074°04'0 0.0
2017-Oct-12 08:29N 40°39' W 074°04'0 0.0
2017-Oct-12 07:59N 40°39' W 074°04'0 0.0
2017-Oct-12 07:29N 40°39' W 074°04'0 0.0
2017-Oct-12 06:59N 40°39' W 074°04'0 0.0
2017-Oct-12 06:29N 40°39' W 074°04'0 0.0
2017-Oct-12 05:56N 40°39' W 074°04'0 0.0
2017-Oct-12 05:29N 40°39' W 074°04'0 0.0
2017-Oct-12 04:59N 40°39' W 074°04'0 0.1
2017-Oct-12 04:30N 40°39' W 074°04'0 0.6
2017-Oct-12 04:00N 40°39' W 074°04'0 0.7
2017-Oct-12 03:30N 40°39' W 074°04'0 0.0
2017-Oct-12 03:00N 40°39' W 074°04'4 8.2
2017-Oct-12 02:29N 40°42' W 074°01'4 8.9
2017-Oct-12 02:00N 40°39' W 074°04'4 8.3
2017-Oct-12 01:30N 40°42' W 074°01'0 0.3
2017-Oct-12 01:00N 40°42' W 074°01'4 8.6
2017-Oct-12 00:30N 40°39' W 074°04'0 0.3
2017-Oct-12 00:00N 40°39' W 074°04'4 8.4
2017-Oct-11 23:30N 40°42' W 074°01'4 8.7
2017-Oct-11 23:00N 40°39' W 074°04'4 8.4
2017-Oct-11 22:29N 40°42' W 074°01'4 9.0
2017-Oct-11 22:00N 40°39' W 074°04'4 8.5
2017-Oct-11 21:30N 40°42' W 074°01'3 6.4
2017-Oct-11 21:00N 40°39' W 074°03'2 3.3
2017-Oct-11 20:30N 40°41' W 074°02'1 2.4
2017-Oct-11 20:00N 40°40' W 074°03'2 3.3
2017-Oct-11 19:30N 40°39' W 074°04'4 8.6
2017-Oct-11 19:00N 40°42' W 074°01'4 8.6
2017-Oct-11 18:30N 40°39' W 074°04'0 0.0
2017-Oct-11 18:00N 40°39' W 074°04'0 0.0
2017-Oct-11 17:30N 40°39' W 074°04'0 0.0
2017-Oct-11 17:00N 40°39' W 074°04'4 0.3
2017-Oct-11 00:00N 40°42' W 074°01'4 8.5
2017-Oct-10 23:30N 40°39' W 074°04'2 4.5
2017-Oct-10 23:00N 40°41' W 074°03'0 0.8
2017-Oct-10 22:30N 40°40' W 074°03'0 0.9
2017-Oct-10 22:01N 40°41' W 074°02'1 2.4
2017-Oct-10 21:31N 40°42' W 074°02'4 5.5
2017-Oct-10 20:52N 40°39' W 074°04'412.1
2017-Oct-10 20:30N 40°42' W 074°01'3 6.0
2017-Oct-10 20:00N 40°39' W 074°03'1 2.7
2017-Oct-10 19:30N 40°39' W 074°04'0 0.0
2017-Oct-10 19:00N 40°39' W 074°04'2 3.3
2017-Oct-10 18:31N 40°40' W 074°03'2 3.4
2017-Oct-10 18:00N 40°41' W 074°02'3 5.4
2017-Oct-10 17:31N 40°39' W 074°04'4 7.3
2017-Oct-10 17:00N 40°42' W 074°01'4 8.6
2017-Oct-10 16:30N 40°39' W 074°04'4 8.6
2017-Oct-10 16:00N 40°42' W 074°01'4 8.6
2017-Oct-10 15:30N 40°39' W 074°04'0 0.0
2017-Oct-10 15:00N 40°39' W 074°04'0 0.1
2017-Oct-10 14:00N 40°39' W 074°04'0 0.0
2017-Oct-10 13:30N 40°39' W 074°04'4 8.6
2017-Oct-10 13:00N 40°42' W 074°01'4 8.6
2017-Oct-10 12:30N 40°39' W 074°04'4 8.6
2017-Oct-10 12:01N 40°42' W 074°01'4 8.6
2017-Oct-10 11:31N 40°39' W 074°04'0 0.2
2017-Oct-10 11:01N 40°39' W 074°04'0 0.0
2017-Oct-10 10:30N 40°39' W 074°04'0 0.0
2017-Oct-10 10:00N 40°39' W 074°04'0 0.0
2017-Oct-10 09:31N 40°39' W 074°04'0 0.0
2017-Oct-10 09:00N 40°39' W 074°04'0 0.0
2017-Oct-10 08:30N 40°39' W 074°04'0 0.0
2017-Oct-10 08:00N 40°39' W 074°04'0 0.0
2017-Oct-10 07:30N 40°39' W 074°04'0 0.0
2017-Oct-10 07:00N 40°39' W 074°04'0 0.0
2017-Oct-10 06:30N 40°39' W 074°04'0 0.0
2017-Oct-10 06:00N 40°39' W 074°04'0 0.0
2017-Oct-10 05:30N 40°39' W 074°04'0 0.0
2017-Oct-10 05:00N 40°39' W 074°04'0 0.0
2017-Oct-10 04:30N 40°39' W 074°04'0 0.0
2017-Oct-10 04:00N 40°39' W 074°04'0 0.2
2017-Oct-10 03:31N 40°39' W 074°04'0 0.0
2017-Oct-10 03:00N 40°39' W 074°04'4 8.6
2017-Oct-10 02:31N 40°42' W 074°01'4 8.6
2017-Oct-10 02:00N 40°39' W 074°04'0 0.0
2017-Oct-10 01:31N 40°39' W 074°04'4 8.5
2017-Oct-10 01:00N 40°42' W 074°01'4 8.5
2017-Oct-10 00:30N 40°39' W 074°04'0 0.7
2017-Oct-10 00:00N 40°39' W 074°04'4 7.9
2017-Oct-09 23:30N 40°42' W 074°01'4 8.7
2017-Oct-09 23:00N 40°39' W 074°04'4 8.6
2017-Oct-09 22:30N 40°42' W 074°01'4 8.6
2017-Oct-09 22:00N 40°39' W 074°04'4 8.5
2017-Oct-09 21:30N 40°42' W 074°01'3 6.8
2017-Oct-09 21:01N 40°39' W 074°03'3 6.1
2017-Oct-09 20:30N 40°42' W 074°01'3 5.9
2017-Oct-09 20:00N 40°39' W 074°03'1 2.1
2017-Oct-09 19:30N 40°39' W 074°04'4 8.6
2017-Oct-09 19:00N 40°42' W 074°01'4 8.6
2017-Oct-09 18:30N 40°39' W 074°04'4 8.6
2017-Oct-09 18:00N 40°42' W 074°01'4 8.5
2017-Oct-09 17:31N 40°39' W 074°04'0 0.0
2017-Oct-09 17:00N 40°39' W 074°04'4 8.6
2017-Oct-09 16:31N 40°42' W 074°01'4 8.6
2017-Oct-09 16:00N 40°39' W 074°04'0 0.0
2017-Oct-09 15:30N 40°39' W 074°04'0 0.0
2017-Oct-09 15:00N 40°39' W 074°04'0 0.0
2017-Oct-09 14:30N 40°39' W 074°04'4 8.6
2017-Oct-09 14:00N 40°42' W 074°01'4 8.6
2017-Oct-09 13:30N 40°39' W 074°04'4 8.6
2017-Oct-09 13:00N 40°42' W 074°01'4 8.6
2017-Oct-09 12:30N 40°39' W 074°04'4 8.5
2017-Oct-09 12:00N 40°42' W 074°01'4 8.6
2017-Oct-09 11:30N 40°39' W 074°04'0 0.0
2017-Oct-09 11:00N 40°39' W 074°04'0 0.1
2017-Oct-09 10:30N 40°39' W 074°04'0 0.1
2017-Oct-09 10:00N 40°39' W 074°04'0 0.0
2017-Oct-09 09:28N 40°39' W 074°04'0 0.0
2017-Oct-09 08:58N 40°39' W 074°04'0 0.0
2017-Oct-09 08:28N 40°39' W 074°04'0 0.0
2017-Oct-09 07:58N 40°39' W 074°04'0 0.0
2017-Oct-09 07:28N 40°39' W 074°04'0 0.0
2017-Oct-09 06:58N 40°39' W 074°04'0 0.0
2017-Oct-09 06:28N 40°39' W 074°04'0 0.0
2017-Oct-09 05:58N 40°39' W 074°04'0 0.0
2017-Oct-09 05:29N 40°39' W 074°04'0 0.0
2017-Oct-09 03:55N 40°39' W 074°04'410.6
2017-Oct-09 03:30N 40°42' W 074°01'4 8.5
2017-Oct-09 03:00N 40°39' W 074°04'4 8.5
2017-Oct-09 02:31N 40°42' W 074°01'4 8.6
2017-Oct-09 02:01N 40°39' W 074°04'4 8.5
2017-Oct-09 01:30N 40°42' W 074°01'4 8.5
2017-Oct-09 01:00N 40°39' W 074°04'4 8.5
2017-Oct-09 00:30N 40°42' W 074°01'4 8.6
2017-Oct-09 00:00N 40°39' W 074°04'0 0.0
2017-Oct-08 23:30N 40°39' W 074°04'4 8.6
2017-Oct-08 23:00N 40°42' W 074°01'4 8.6
2017-Oct-08 22:30N 40°39' W 074°04'0 0.1
2017-Oct-08 22:00N 40°39' W 074°04'4 8.6
2017-Oct-08 21:30N 40°42' W 074°01'4 8.4
2017-Oct-08 21:00N 40°39' W 074°04'0 0.1
2017-Oct-08 20:30N 40°39' W 074°04'4 8.6
2017-Oct-08 20:00N 40°42' W 074°01'4 8.7
2017-Oct-08 19:31N 40°39' W 074°04'0 0.1
2017-Oct-08 19:00N 40°39' W 074°04'4 8.7
2017-Oct-08 18:30N 40°42' W 074°01'4 8.7
2017-Oct-08 18:01N 40°39' W 074°04'0 0.0
2017-Oct-08 17:30N 40°39' W 074°04'4 8.5
2017-Oct-08 17:00N 40°42' W 074°01'4 8.6
2017-Oct-08 16:30N 40°39' W 074°04'0 0.6
2017-Oct-08 16:01N 40°39' W 074°04'4 7.8
2017-Oct-08 15:30N 40°42' W 074°01'4 8.6
2017-Oct-08 15:00N 40°39' W 074°04'4 8.6
2017-Oct-08 14:30N 40°42' W 074°01'4 8.5
2017-Oct-08 14:00N 40°39' W 074°04'4 8.7
2017-Oct-08 13:30N 40°42' W 074°01'4 8.5
2017-Oct-08 13:00N 40°39' W 074°04'1 1.2
2017-Oct-08 12:30N 40°39' W 074°04'3 6.4
2017-Oct-08 12:00N 40°42' W 074°01'4 6.9
2017-Oct-08 11:30N 40°39' W 074°04'4 8.2
2017-Oct-08 11:00N 40°42' W 074°01'4 8.7
2017-Oct-08 10:30N 40°39' W 074°04'4 8.6
2017-Oct-08 10:00N 40°42' W 074°01'4 8.6
2017-Oct-08 09:31N 40°39' W 074°04'4 8.6
2017-Oct-08 09:01N 40°42' W 074°01'4 8.5
2017-Oct-08 08:30N 40°39' W 074°04'4 8.6
2017-Oct-08 08:00N 40°42' W 074°01'4 8.5
2017-Oct-08 07:30N 40°39' W 074°04'4 8.5
2017-Oct-08 07:01N 40°42' W 074°01'4 8.6
2017-Oct-08 06:31N 40°39' W 074°04'4 8.6
2017-Oct-08 06:00N 40°42' W 074°01'4 8.5
2017-Oct-08 05:30N 40°39' W 074°04'4 8.5
2017-Oct-08 05:00N 40°42' W 074°01'4 8.5
2017-Oct-08 04:30N 40°39' W 074°04'0 0.1
2017-Oct-08 04:00N 40°39' W 074°04'4 8.6
2017-Oct-08 03:30N 40°42' W 074°01'4 8.5
2017-Oct-08 03:00N 40°39' W 074°04'4 8.5
2017-Oct-08 02:30N 40°42' W 074°01'4 8.4
2017-Oct-08 02:00N 40°39' W 074°04'4 8.5
2017-Oct-08 01:30N 40°42' W 074°01'4 8.6
2017-Oct-08 01:00N 40°39' W 074°04'4 8.6
2017-Oct-08 00:31N 40°42' W 074°01'4 8.5
2017-Oct-08 00:00N 40°39' W 074°04'0 0.1
2017-Oct-07 23:31N 40°39' W 074°04'4 8.6
2017-Oct-07 23:00N 40°42' W 074°01'4 8.5
2017-Oct-07 22:30N 40°39' W 074°04'0 0.1
2017-Oct-07 22:00N 40°39' W 074°04'4 8.7
2017-Oct-07 21:30N 40°42' W 074°01'4 8.4
2017-Oct-07 21:00N 40°39' W 074°04'0 0.1
2017-Oct-07 20:30N 40°39' W 074°04'4 8.6
2017-Oct-07 20:00N 40°42' W 074°01'4 8.5
2017-Oct-07 19:30N 40°39' W 074°04'0 0.1
2017-Oct-07 19:00N 40°39' W 074°04'4 8.7
2017-Oct-07 18:30N 40°42' W 074°01'4 8.7
2017-Oct-07 18:00N 40°39' W 074°04'0 0.0
2017-Oct-07 17:30N 40°39' W 074°04'4 8.6
2017-Oct-07 17:00N 40°42' W 074°01'4 8.6
2017-Oct-07 16:30N 40°39' W 074°04'1 1.6
2017-Oct-07 16:00N 40°39' W 074°04'3 6.5
2017-Oct-07 15:30N 40°42' W 074°01'  
Track history (hours):
 
Tides and Currents Weather Stations Pressure Air Temp Water Temp Dewpoint Dewpoint Depression Visibility Wind Speed Wind Dir Waves Ship Positions

Sen. John J. Marchi

Owner: CITY OF NEW YORK, Brooklyn, NY. More information available from US FCC via Universal Licensing System and Coast Guard Vessel Documentation Center.

Last reported at 2017-Oct-17 15:01 UTC. Time now 2017-Oct-17 15:13 UTC.
Position N 40°39' W 074°04'.

Length 95 m; draft 4 m.

Type: Passenger vessel. MMSI: 366952870.

Date/timePositionNaut miles runAvg speedWind from/ knotsBaromVisibWave heightAir tempDewpointWater temp
2017-Oct-17 15:01N 40°39' W 074°04'0 0.0
2017-Oct-17 14:31N 40°39' W 074°04'0 0.0
2017-Oct-17 14:01N 40°39' W 074°04'0 0.0
2017-Oct-17 13:31N 40°39' W 074°04'4 8.6
2017-Oct-17 13:00N 40°42' W 074°01'4 8.6
2017-Oct-17 12:31N 40°39' W 074°04'4 8.6
2017-Oct-17 12:01N 40°42' W 074°01'4 8.6
2017-Oct-17 11:30N 40°39' W 074°04'0 0.0
2017-Oct-17 11:00N 40°39' W 074°04'0 0.0
2017-Oct-17 10:30N 40°39' W 074°04'4 8.6
2017-Oct-17 10:00N 40°42' W 074°01'4 8.5
2017-Oct-17 09:30N 40°39' W 074°04'4 8.6
2017-Oct-17 09:00N 40°42' W 074°01'4 8.6
2017-Oct-17 08:30N 40°39' W 074°04'4 8.6
2017-Oct-17 08:00N 40°42' W 074°01'4 8.6
2017-Oct-17 07:31N 40°39' W 074°04'4 7.1
2017-Oct-17 06:54N 40°42' W 074°01'410.6
2017-Oct-17 06:30N 40°39' W 074°04'4 8.5
2017-Oct-17 06:01N 40°42' W 074°01'4 8.6
2017-Oct-17 05:31N 40°39' W 074°04'4 8.6
2017-Oct-17 05:00N 40°42' W 074°01'4 7.1
2017-Oct-17 04:25N 40°39' W 074°04'4 8.4
2017-Oct-17 03:55N 40°42' W 074°01'410.6
2017-Oct-17 03:30N 40°39' W 074°04'0 0.0
2017-Oct-17 03:00N 40°39' W 074°04'4 8.6
2017-Oct-17 02:30N 40°42' W 074°01'4 8.5
2017-Oct-17 02:00N 40°39' W 074°04'0 0.1
2017-Oct-17 01:30N 40°39' W 074°04'4 8.6
2017-Oct-17 01:01N 40°42' W 074°01'4 8.6
2017-Oct-17 00:30N 40°39' W 074°04'1 1.4
2017-Oct-17 00:01N 40°39' W 074°04'4 7.3
2017-Oct-16 23:30N 40°42' W 074°01'4 8.7
2017-Oct-16 23:01N 40°39' W 074°04'4 8.6
2017-Oct-16 22:30N 40°42' W 074°01'4 8.6
2017-Oct-16 22:00N 40°39' W 074°04'4 8.6
2017-Oct-16 21:30N 40°42' W 074°01'3 6.3
2017-Oct-16 21:00N 40°39' W 074°03'2 3.9
2017-Oct-16 20:30N 40°41' W 074°02'2 3.5
2017-Oct-16 20:00N 40°40' W 074°03'1 2.8
2017-Oct-16 19:30N 40°39' W 074°04'4 8.7
2017-Oct-16 19:01N 40°42' W 074°01'4 8.6
2017-Oct-16 18:30N 40°39' W 074°04'0 0.0
2017-Oct-16 18:00N 40°39' W 074°04'4 8.7
2017-Oct-16 17:31N 40°42' W 074°01'4 8.6
2017-Oct-16 17:01N 40°39' W 074°04'0 0.0
2017-Oct-16 16:30N 40°39' W 074°04'0 0.0
2017-Oct-16 16:00N 40°39' W 074°04'0 0.0
2017-Oct-16 15:30N 40°39' W 074°04'0 0.0
2017-Oct-16 15:00N 40°39' W 074°04'0 0.0
2017-Oct-16 14:30N 40°39' W 074°04'0 0.0
2017-Oct-16 13:30N 40°39' W 074°04'4 8.7
2017-Oct-16 13:01N 40°42' W 074°01'4 8.6
2017-Oct-16 12:30N 40°39' W 074°04'4 8.6
2017-Oct-16 12:00N 40°42' W 074°01'4 8.6
2017-Oct-16 11:30N 40°39' W 074°04'3 6.0
2017-Oct-16 11:01N 40°41' W 074°02'2 3.1
2017-Oct-16 10:31N 40°40' W 074°03'2 3.0
2017-Oct-16 10:00N 40°39' W 074°04'4 8.6
2017-Oct-16 09:30N 40°42' W 074°01'4 8.6
2017-Oct-16 09:00N 40°39' W 074°04'4 8.6
2017-Oct-16 08:30N 40°42' W 074°01'4 8.6
2017-Oct-16 08:01N 40°39' W 074°04'4 8.5
2017-Oct-16 07:31N 40°42' W 074°01'4 8.5
2017-Oct-16 07:00N 40°39' W 074°04'4 8.6
2017-Oct-16 06:31N 40°42' W 074°01'4 8.6
2017-Oct-16 06:01N 40°39' W 074°04'4 8.6
2017-Oct-16 05:30N 40°42' W 074°01'4 8.6
2017-Oct-16 05:01N 40°39' W 074°04'0 0.0
2017-Oct-16 04:31N 40°39' W 074°04'0 0.0
2017-Oct-16 04:01N 40°39' W 074°04'4 8.5
2017-Oct-16 03:30N 40°42' W 074°01'4 8.5
2017-Oct-16 03:00N 40°39' W 074°04'4 8.5
2017-Oct-16 02:30N 40°42' W 074°01'4 8.5
2017-Oct-16 02:00N 40°39' W 074°04'4 8.6
2017-Oct-16 01:30N 40°42' W 074°01'4 8.5
2017-Oct-16 01:00N 40°39' W 074°04'4 8.5
2017-Oct-16 00:30N 40°42' W 074°01'4 8.5
2017-Oct-16 00:00N 40°39' W 074°04'0 0.0
2017-Oct-15 23:25N 40°39' W 074°04'410.6
2017-Oct-15 23:00N 40°42' W 074°01'4 8.5
2017-Oct-15 22:31N 40°39' W 074°04'0 0.1
2017-Oct-15 22:00N 40°39' W 074°04'4 8.6
2017-Oct-15 21:30N 40°42' W 074°01'4 8.7
2017-Oct-15 21:00N 40°39' W 074°04'0 0.3
2017-Oct-15 20:31N 40°39' W 074°04'4 8.3
2017-Oct-15 20:00N 40°42' W 074°01'4 8.5
2017-Oct-15 19:30N 40°39' W 074°04'0 0.0
2017-Oct-15 19:00N 40°39' W 074°04'4 8.6
2017-Oct-15 18:30N 40°42' W 074°01'4 8.6
2017-Oct-15 18:00N 40°39' W 074°04'0 0.0
2017-Oct-15 17:30N 40°39' W 074°04'4 8.6
2017-Oct-15 17:00N 40°42' W 074°01'4 8.7
2017-Oct-15 16:30N 40°39' W 074°04'0 0.0
2017-Oct-15 16:00N 40°39' W 074°04'4 8.6
2017-Oct-15 15:30N 40°42' W 074°01'4 8.6
2017-Oct-15 15:00N 40°39' W 074°04'0 0.0
2017-Oct-15 14:01N 40°39' W 074°04'4 8.6
2017-Oct-15 13:31N 40°42' W 074°01'4 8.6
2017-Oct-15 13:00N 40°39' W 074°04'4 8.6
2017-Oct-15 12:31N 40°42' W 074°01'4 8.6
2017-Oct-15 12:01N 40°39' W 074°04'0 0.0
2017-Oct-15 11:30N 40°39' W 074°04'0 0.0
2017-Oct-15 11:00N 40°39' W 074°04'0 0.0
2017-Oct-15 10:30N 40°39' W 074°04'0 0.0
2017-Oct-15 10:01N 40°39' W 074°04'0 0.0
2017-Oct-15 05:13N 40°39' W 074°04'0 0.0
2017-Oct-15 05:00N 40°39' W 074°04'0 0.0
2017-Oct-15 04:30N 40°39' W 074°04'0 0.3
2017-Oct-15 04:01N 40°39' W 074°04'4 7.6
2017-Oct-15 03:30N 40°42' W 074°01'4 7.6
2017-Oct-15 03:00N 40°39' W 074°04'4 8.2
2017-Oct-15 02:31N 40°42' W 074°01'4 8.5
2017-Oct-15 02:00N 40°39' W 074°04'4 8.6
2017-Oct-15 01:30N 40°42' W 074°01'4 8.6
2017-Oct-15 01:01N 40°39' W 074°04'4 8.6
2017-Oct-15 00:30N 40°42' W 074°01'4 8.6
2017-Oct-15 00:01N 40°39' W 074°04'0 0.1
2017-Oct-14 23:31N 40°39' W 074°04'4 8.5
2017-Oct-14 23:00N 40°42' W 074°01'4 8.5
2017-Oct-14 22:31N 40°39' W 074°04'0 0.1
2017-Oct-14 22:00N 40°39' W 074°04'4 8.6
2017-Oct-14 21:30N 40°42' W 074°01'4 8.6
2017-Oct-14 21:01N 40°39' W 074°04'0 0.0
2017-Oct-14 20:30N 40°39' W 074°04'4 8.8
2017-Oct-14 20:00N 40°42' W 074°01'4 8.6
2017-Oct-14 19:31N 40°39' W 074°04'0 0.1
2017-Oct-14 19:00N 40°39' W 074°04'4 8.7
2017-Oct-14 18:30N 40°42' W 074°01'4 8.5
2017-Oct-14 18:00N 40°39' W 074°04'0 0.1
2017-Oct-14 17:30N 40°39' W 074°04'4 8.7
2017-Oct-14 17:00N 40°42' W 074°01'4 8.6
2017-Oct-14 16:30N 40°39' W 074°04'1 2.2
2017-Oct-14 16:00N 40°39' W 074°03'3 5.6
2017-Oct-14 15:30N 40°42' W 074°01'4 7.6
2017-Oct-14 15:00N 40°39' W 074°04'4 8.7
2017-Oct-14 14:30N 40°42' W 074°01'4 8.5
2017-Oct-14 14:00N 40°39' W 074°04'4 8.8
2017-Oct-14 13:30N 40°42' W 074°01'4 8.7
2017-Oct-14 13:00N 40°39' W 074°04'4 8.6
2017-Oct-14 12:30N 40°42' W 074°01'4 8.5
2017-Oct-14 12:00N 40°39' W 074°04'0 0.0
2017-Oct-14 11:30N 40°39' W 074°04'0 0.0
2017-Oct-14 11:00N 40°39' W 074°04'0 0.0
2017-Oct-14 10:30N 40°39' W 074°04'0 0.0
2017-Oct-14 10:00N 40°39' W 074°04'0 0.0
2017-Oct-14 09:30N 40°39' W 074°04'0 0.1
2017-Oct-14 08:58N 40°39' W 074°04'0 0.0
2017-Oct-14 08:28N 40°39' W 074°04'0 0.0
2017-Oct-14 07:58N 40°39' W 074°04'0 0.0
2017-Oct-14 07:28N 40°39' W 074°04'0 0.0
2017-Oct-14 06:58N 40°39' W 074°04'0 0.0
2017-Oct-14 06:28N 40°39' W 074°04'0 0.0
2017-Oct-14 05:58N 40°39' W 074°04'0 0.0
2017-Oct-14 05:28N 40°39' W 074°04'0 0.0
2017-Oct-14 04:58N 40°39' W 074°04'0 0.0
2017-Oct-14 04:28N 40°39' W 074°04'0 0.0
2017-Oct-14 03:58N 40°39' W 074°04'0 0.0
2017-Oct-14 03:30N 40°39' W 074°04'0 0.0
2017-Oct-14 03:00N 40°39' W 074°04'4 8.7
2017-Oct-14 02:30N 40°42' W 074°01'4 8.6
2017-Oct-14 02:00N 40°39' W 074°04'0 0.0
2017-Oct-14 01:23N 40°39' W 074°04'411.1
2017-Oct-14 01:00N 40°42' W 074°01'4 8.6
2017-Oct-14 00:30N 40°39' W 074°04'0 0.6
2017-Oct-14 00:01N 40°39' W 074°04'4 7.8
2017-Oct-13 23:29N 40°42' W 074°01'4 8.7
2017-Oct-13 23:00N 40°39' W 074°04'4 8.5
2017-Oct-13 22:30N 40°42' W 074°01'4 8.6
2017-Oct-13 22:00N 40°39' W 074°04'4 8.4
2017-Oct-13 21:30N 40°42' W 074°01'4 8.4
2017-Oct-13 21:00N 40°39' W 074°04'3 6.9
2017-Oct-13 20:30N 40°42' W 074°02'3 5.2
2017-Oct-13 20:00N 40°39' W 074°03'1 2.1
2017-Oct-13 19:30N 40°39' W 074°04'4 8.7
2017-Oct-13 19:00N 40°42' W 074°01'4 8.4
2017-Oct-13 18:30N 40°39' W 074°04'0 0.1
2017-Oct-13 18:00N 40°39' W 074°04'4 8.6
2017-Oct-13 17:30N 40°42' W 074°01'4 8.6
2017-Oct-13 17:00N 40°39' W 074°04'4 8.7
2017-Oct-13 16:30N 40°42' W 074°01'4 8.8
2017-Oct-13 16:00N 40°39' W 074°04'0 0.0
2017-Oct-13 15:30N 40°39' W 074°04'0 0.0
2017-Oct-13 15:00N 40°39' W 074°04'0 0.0
2017-Oct-13 14:30N 40°39' W 074°04'0 0.0
2017-Oct-13 14:00N 40°39' W 074°04'0 0.0
2017-Oct-13 13:30N 40°39' W 074°04'4 8.7
2017-Oct-13 13:00N 40°42' W 074°01'4 8.7
2017-Oct-13 12:30N 40°39' W 074°04'4 8.7
2017-Oct-13 12:00N 40°42' W 074°01'4 8.5
2017-Oct-13 11:30N 40°39' W 074°04'0 0.2
2017-Oct-13 11:00N 40°39' W 074°04'0 0.0
2017-Oct-13 10:29N 40°39' W 074°04'0 0.0
2017-Oct-13 09:59N 40°39' W 074°04'0 0.0
2017-Oct-13 09:29N 40°39' W 074°04'0 0.0
2017-Oct-13 08:59N 40°39' W 074°04'0 0.0
2017-Oct-13 08:29N 40°39' W 074°04'0 0.0
2017-Oct-13 07:59N 40°39' W 074°04'0 0.0
2017-Oct-13 07:29N 40°39' W 074°04'0 0.0
2017-Oct-13 06:56N 40°39' W 074°04'0 0.0
2017-Oct-13 06:29N 40°39' W 074°04'0 0.0
2017-Oct-13 05:59N 40°39' W 074°04'0 0.0
2017-Oct-13 05:29N 40°39' W 074°04'0 0.0
2017-Oct-13 04:59N 40°39' W 074°04'0 0.0
2017-Oct-13 04:30N 40°39' W 074°04'1 1.4
2017-Oct-13 04:00N 40°38' W 074°04'1 1.5
2017-Oct-13 03:30N 40°39' W 074°04'0 0.0
2017-Oct-13 03:00N 40°39' W 074°04'4 8.8
2017-Oct-13 02:30N 40°42' W 074°01'4 8.4
2017-Oct-13 02:00N 40°39' W 074°04'0 0.0
2017-Oct-13 01:31N 40°39' W 074°04'4 8.5
2017-Oct-13 01:00N 40°42' W 074°01'4 8.6
2017-Oct-13 00:30N 40°39' W 074°04'0 0.2
2017-Oct-13 00:00N 40°39' W 074°04'4 8.1
2017-Oct-12 23:29N 40°42' W 074°01'4 7.4
2017-Oct-12 22:54N 40°39' W 074°04'410.9
2017-Oct-12 22:30N 40°42' W 074°01'4 8.4
2017-Oct-12 22:00N 40°39' W 074°04'4 8.6
2017-Oct-12 21:30N 40°42' W 074°01'4 8.5
2017-Oct-12 21:00N 40°39' W 074°04'3 6.6
2017-Oct-12 20:30N 40°42' W 074°02'2 4.1
2017-Oct-12 20:00N 40°40' W 074°03'1 3.0
2017-Oct-12 19:30N 40°39' W 074°04'4 8.6
2017-Oct-12 19:00N 40°42' W 074°01'4 8.6
2017-Oct-12 18:30N 40°39' W 074°04'0 0.0
2017-Oct-12 17:30N 40°39' W 074°04'4 8.7
2017-Oct-12 17:00N 40°42' W 074°01'4 8.6
2017-Oct-12 16:30N 40°39' W 074°04'0 0.0
2017-Oct-12 15:01N 40°39' W 074°04'0 0.0
2017-Oct-12 15:00N 40°39' W 074°04'0 0.0
2017-Oct-12 14:31N 40°39' W 074°04'4 8.3
2017-Oct-12 13:59N 40°42' W 074°01'4 8.8
2017-Oct-12 13:30N 40°39' W 074°04'0 0.0
2017-Oct-12 12:33N 40°39' W 074°04'0 0.0
2017-Oct-12 12:30N 40°39' W 074°04'4 8.7
2017-Oct-12 12:00N 40°42' W 074°01'4 8.5
2017-Oct-12 11:30N 40°39' W 074°04'0 0.2
2017-Oct-12 11:00N 40°39' W 074°04'0 0.0
2017-Oct-12 10:30N 40°39' W 074°04'0 0.0
2017-Oct-12 10:00N 40°39' W 074°04'0 0.0
2017-Oct-12 09:30N 40°39' W 074°04'0 0.0
2017-Oct-12 09:00N 40°39' W 074°04'0 0.0
2017-Oct-12 08:29N 40°39' W 074°04'0 0.0
2017-Oct-12 07:59N 40°39' W 074°04'0 0.0
2017-Oct-12 07:29N 40°39' W 074°04'0 0.0
2017-Oct-12 06:59N 40°39' W 074°04'0 0.0
2017-Oct-12 06:29N 40°39' W 074°04'0 0.0
2017-Oct-12 05:56N 40°39' W 074°04'0 0.0
2017-Oct-12 05:29N 40°39' W 074°04'0 0.0
2017-Oct-12 04:59N 40°39' W 074°04'0 0.1
2017-Oct-12 04:30N 40°39' W 074°04'0 0.6
2017-Oct-12 04:00N 40°39' W 074°04'0 0.7
2017-Oct-12 03:30N 40°39' W 074°04'0 0.0
2017-Oct-12 03:00N 40°39' W 074°04'4 8.2
2017-Oct-12 02:29N 40°42' W 074°01'4 8.9
2017-Oct-12 02:00N 40°39' W 074°04'4 8.3
2017-Oct-12 01:30N 40°42' W 074°01'0 0.3
2017-Oct-12 01:00N 40°42' W 074°01'4 8.6
2017-Oct-12 00:30N 40°39' W 074°04'0 0.3
2017-Oct-12 00:00N 40°39' W 074°04'4 8.4
2017-Oct-11 23:30N 40°42' W 074°01'4 8.7
2017-Oct-11 23:00N 40°39' W 074°04'4 8.4
2017-Oct-11 22:29N 40°42' W 074°01'4 9.0
2017-Oct-11 22:00N 40°39' W 074°04'4 8.5
2017-Oct-11 21:30N 40°42' W 074°01'3 6.4
2017-Oct-11 21:00N 40°39' W 074°03'2 3.3
2017-Oct-11 20:30N 40°41' W 074°02'1 2.4
2017-Oct-11 20:00N 40°40' W 074°03'2 3.3
2017-Oct-11 19:30N 40°39' W 074°04'4 8.6
2017-Oct-11 19:00N 40°42' W 074°01'4 8.6
2017-Oct-11 18:30N 40°39' W 074°04'0 0.0
2017-Oct-11 18:00N 40°39' W 074°04'0 0.0
2017-Oct-11 17:30N 40°39' W 074°04'0 0.0
2017-Oct-11 17:00N 40°39' W 074°04'4 0.3
2017-Oct-11 00:00N 40°42' W 074°01'4 8.5
2017-Oct-10 23:30N 40°39' W 074°04'2 4.5
2017-Oct-10 23:00N 40°41' W 074°03'0 0.8
2017-Oct-10 22:30N 40°40' W 074°03'0 0.9
2017-Oct-10 22:01N 40°41' W 074°02'1 2.4
2017-Oct-10 21:31N 40°42' W 074°02'4 5.5
2017-Oct-10 20:52N 40°39' W 074°04'412.1
2017-Oct-10 20:30N 40°42' W 074°01'3 6.0
2017-Oct-10 20:00N 40°39' W 074°03'1 2.7
2017-Oct-10 19:30N 40°39' W 074°04'0 0.0
2017-Oct-10 19:00N 40°39' W 074°04'2 3.3
2017-Oct-10 18:31N 40°40' W 074°03'2 3.4
2017-Oct-10 18:00N 40°41' W 074°02'3 5.4
2017-Oct-10 17:31N 40°39' W 074°04'4 7.3
2017-Oct-10 17:00N 40°42' W 074°01'4 8.6
2017-Oct-10 16:30N 40°39' W 074°04'4 8.6
2017-Oct-10 16:00N 40°42' W 074°01'4 8.6
2017-Oct-10 15:30N 40°39' W 074°04'0 0.0
2017-Oct-10 15:00N 40°39' W 074°04'0 0.1
2017-Oct-10 14:00N 40°39' W 074°04'0 0.0
2017-Oct-10 13:30N 40°39' W 074°04'4 8.6
2017-Oct-10 13:00N 40°42' W 074°01'4 8.6
2017-Oct-10 12:30N 40°39' W 074°04'4 8.6
2017-Oct-10 12:01N 40°42' W 074°01'4 8.6
2017-Oct-10 11:31N 40°39' W 074°04'0 0.2
2017-Oct-10 11:01N 40°39' W 074°04'0 0.0
2017-Oct-10 10:30N 40°39' W 074°04'0 0.0
2017-Oct-10 10:00N 40°39' W 074°04'0 0.0
2017-Oct-10 09:31N 40°39' W 074°04'0 0.0
2017-Oct-10 09:00N 40°39' W 074°04'0 0.0
2017-Oct-10 08:30N 40°39' W 074°04'0 0.0
2017-Oct-10 08:00N 40°39' W 074°04'0 0.0
2017-Oct-10 07:30N 40°39' W 074°04'0 0.0
2017-Oct-10 07:00N 40°39' W 074°04'0 0.0
2017-Oct-10 06:30N 40°39' W 074°04'0 0.0
2017-Oct-10 06:00N 40°39' W 074°04'0 0.0
2017-Oct-10 05:30N 40°39' W 074°04'0 0.0
2017-Oct-10 05:00N 40°39' W 074°04'0 0.0
2017-Oct-10 04:30N 40°39' W 074°04'0 0.0
2017-Oct-10 04:00N 40°39' W 074°04'0 0.2
2017-Oct-10 03:31N 40°39' W 074°04'0 0.0
2017-Oct-10 03:00N 40°39' W 074°04'4 8.6
2017-Oct-10 02:31N 40°42' W 074°01'4 8.6
2017-Oct-10 02:00N 40°39' W 074°04'0 0.0
2017-Oct-10 01:31N 40°39' W 074°04'4 8.5
2017-Oct-10 01:00N 40°42' W 074°01'4 8.5
2017-Oct-10 00:30N 40°39' W 074°04'0 0.7
2017-Oct-10 00:00N 40°39' W 074°04'4 7.9
2017-Oct-09 23:30N 40°42' W 074°01'4 8.7
2017-Oct-09 23:00N 40°39' W 074°04'4 8.6
2017-Oct-09 22:30N 40°42' W 074°01'4 8.6
2017-Oct-09 22:00N 40°39' W 074°04'4 8.5
2017-Oct-09 21:30N 40°42' W 074°01'3 6.8
2017-Oct-09 21:01N 40°39' W 074°03'3 6.1
2017-Oct-09 20:30N 40°42' W 074°01'3 5.9
2017-Oct-09 20:00N 40°39' W 074°03'1 2.1
2017-Oct-09 19:30N 40°39' W 074°04'4 8.6
2017-Oct-09 19:00N 40°42' W 074°01'4 8.6
2017-Oct-09 18:30N 40°39' W 074°04'4 8.6
2017-Oct-09 18:00N 40°42' W 074°01'4 8.5
2017-Oct-09 17:31N 40°39' W 074°04'0 0.0
2017-Oct-09 17:00N 40°39' W 074°04'4 8.6
2017-Oct-09 16:31N 40°42' W 074°01'4 8.6
2017-Oct-09 16:00N 40°39' W 074°04'0 0.0
2017-Oct-09 15:30N 40°39' W 074°04'0 0.0
2017-Oct-09 15:00N 40°39' W 074°04'0 0.0
2017-Oct-09 14:30N 40°39' W 074°04'4 8.6
2017-Oct-09 14:00N 40°42' W 074°01'4 8.6
2017-Oct-09 13:30N 40°39' W 074°04'4 8.6
2017-Oct-09 13:00N 40°42' W 074°01'4 8.6
2017-Oct-09 12:30N 40°39' W 074°04'4 8.5
2017-Oct-09 12:00N 40°42' W 074°01'4 8.6
2017-Oct-09 11:30N 40°39' W 074°04'0 0.0
2017-Oct-09 11:00N 40°39' W 074°04'0 0.1
2017-Oct-09 10:30N 40°39' W 074°04'0 0.1
2017-Oct-09 10:00N 40°39' W 074°04'0 0.0
2017-Oct-09 09:28N 40°39' W 074°04'0 0.0
2017-Oct-09 08:58N 40°39' W 074°04'0 0.0
2017-Oct-09 08:28N 40°39' W 074°04'0 0.0
2017-Oct-09 07:58N 40°39' W 074°04'0 0.0
2017-Oct-09 07:28N 40°39' W 074°04'0 0.0
2017-Oct-09 06:58N 40°39' W 074°04'0 0.0
2017-Oct-09 06:28N 40°39' W 074°04'0 0.0
2017-Oct-09 05:58N 40°39' W 074°04'0 0.0
2017-Oct-09 05:29N 40°39' W 074°04'0 0.0
2017-Oct-09 03:55N 40°39' W 074°04'410.6
2017-Oct-09 03:30N 40°42' W 074°01'4 8.5
2017-Oct-09 03:00N 40°39' W 074°04'4 8.5
2017-Oct-09 02:31N 40°42' W 074°01'4 8.6
2017-Oct-09 02:01N 40°39' W 074°04'4 8.5
2017-Oct-09 01:30N 40°42' W 074°01'4 8.5
2017-Oct-09 01:00N 40°39' W 074°04'4 8.5
2017-Oct-09 00:30N 40°42' W 074°01'4 8.6
2017-Oct-09 00:00N 40°39' W 074°04'0 0.0
2017-Oct-08 23:30N 40°39' W 074°04'4 8.6
2017-Oct-08 23:00N 40°42' W 074°01'4 8.6
2017-Oct-08 22:30N 40°39' W 074°04'0 0.1
2017-Oct-08 22:00N 40°39' W 074°04'4 8.6
2017-Oct-08 21:30N 40°42' W 074°01'4 8.4
2017-Oct-08 21:00N 40°39' W 074°04'0 0.1
2017-Oct-08 20:30N 40°39' W 074°04'4 8.6
2017-Oct-08 20:00N 40°42' W 074°01'4 8.7
2017-Oct-08 19:31N 40°39' W 074°04'0 0.1
2017-Oct-08 19:00N 40°39' W 074°04'4 8.7
2017-Oct-08 18:30N 40°42' W 074°01'4 8.7
2017-Oct-08 18:01N 40°39' W 074°04'0 0.0
2017-Oct-08 17:30N 40°39' W 074°04'4 8.5
2017-Oct-08 17:00N 40°42' W 074°01'4 8.6
2017-Oct-08 16:30N 40°39' W 074°04'0 0.6
2017-Oct-08 16:01N 40°39' W 074°04'4 7.8
2017-Oct-08 15:30N 40°42' W 074°01'4 8.6
2017-Oct-08 15:00N 40°39' W 074°04'4 8.6
2017-Oct-08 14:30N 40°42' W 074°01'4 8.5
2017-Oct-08 14:00N 40°39' W 074°04'4 8.7
2017-Oct-08 13:30N 40°42' W 074°01'4 8.5
2017-Oct-08 13:00N 40°39' W 074°04'1 1.2
2017-Oct-08 12:30N 40°39' W 074°04'3 6.4
2017-Oct-08 12:00N 40°42' W 074°01'4 6.9
2017-Oct-08 11:30N 40°39' W 074°04'4 8.2
2017-Oct-08 11:00N 40°42' W 074°01'4 8.7
2017-Oct-08 10:30N 40°39' W 074°04'4 8.6
2017-Oct-08 10:00N 40°42' W 074°01'4 8.6
2017-Oct-08 09:31N 40°39' W 074°04'4 8.6
2017-Oct-08 09:01N 40°42' W 074°01'4 8.5
2017-Oct-08 08:30N 40°39' W 074°04'4 8.6
2017-Oct-08 08:00N 40°42' W 074°01'4 8.5
2017-Oct-08 07:30N 40°39' W 074°04'4 8.5
2017-Oct-08 07:01N 40°42' W 074°01'4 8.6
2017-Oct-08 06:31N 40°39' W 074°04'4 8.6
2017-Oct-08 06:00N 40°42' W 074°01'4 8.5
2017-Oct-08 05:30N 40°39' W 074°04'4 8.5
2017-Oct-08 05:00N 40°42' W 074°01'4 8.5
2017-Oct-08 04:30N 40°39' W 074°04'0 0.1
2017-Oct-08 04:00N 40°39' W 074°04'4 8.6
2017-Oct-08 03:30N 40°42' W 074°01'4 8.5
2017-Oct-08 03:00N 40°39' W 074°04'4 8.5
2017-Oct-08 02:30N 40°42' W 074°01'4 8.4
2017-Oct-08 02:00N 40°39' W 074°04'4 8.5
2017-Oct-08 01:30N 40°42' W 074°01'4 8.6
2017-Oct-08 01:00N 40°39' W 074°04'4 8.6
2017-Oct-08 00:31N 40°42' W 074°01'4 8.5
2017-Oct-08 00:00N 40°39' W 074°04'0 0.1
2017-Oct-07 23:31N 40°39' W 074°04'4 8.6
2017-Oct-07 23:00N 40°42' W 074°01'4 8.5
2017-Oct-07 22:30N 40°39' W 074°04'0 0.1
2017-Oct-07 22:00N 40°39' W 074°04'4 8.7
2017-Oct-07 21:30N 40°42' W 074°01'4 8.4
2017-Oct-07 21:00N 40°39' W 074°04'0 0.1
2017-Oct-07 20:30N 40°39' W 074°04'4 8.6
2017-Oct-07 20:00N 40°42' W 074°01'4 8.5
2017-Oct-07 19:30N 40°39' W 074°04'0 0.1
2017-Oct-07 19:00N 40°39' W 074°04'4 8.7
2017-Oct-07 18:30N 40°42' W 074°01'4 8.7
2017-Oct-07 18:00N 40°39' W 074°04'0 0.0
2017-Oct-07 17:30N 40°39' W 074°04'4 8.6
2017-Oct-07 17:00N 40°42' W 074°01'4 8.6
2017-Oct-07 16:30N 40°39' W 074°04'1 1.6
2017-Oct-07 16:00N 40°39' W 074°04'3 6.5
2017-Oct-07 15:30N 40°42' W 074°01'  

Dump ship's entire track history